createdAt,value
2024-04-06T00:00:12.380Z,3.80
2024-04-06T00:12:29.428Z,5.30
2024-04-06T00:16:59.364Z,6.50
2024-04-06T00:24:54.157Z,4.60
2024-04-06T00:29:00.389Z,4.40
2024-04-06T00:33:28.921Z,2.60
2024-04-06T00:37:58.221Z,4.10
2024-04-06T00:42:28.023Z,2.80
2024-04-06T00:49:50.418Z,2.50
2024-04-06T00:54:07.765Z,3.70
2024-04-06T00:58:09.394Z,4.00
2024-04-06T01:02:37.250Z,3.90
2024-04-06T01:06:34.644Z,2.90
2024-04-06T01:10:41.541Z,5.60
2024-04-06T01:22:03.234Z,7.40
2024-04-06T01:29:31.221Z,4.10
2024-04-06T01:33:31.371Z,4.80
2024-04-06T01:37:49.218Z,3.20
2024-04-06T01:48:21.180Z,4.60
2024-04-06T01:52:21.211Z,2.20
2024-04-06T01:56:32.298Z,4.00
2024-04-06T02:03:28.171Z,5.10
2024-04-06T02:07:28.308Z,12.30
2024-04-06T02:12:01.977Z,5.30
2024-04-06T02:15:50.125Z,4.50
2024-04-06T02:19:54.250Z,5.60
2024-04-06T02:28:22.211Z,4.00
2024-04-06T02:32:11.278Z,4.30
2024-04-06T02:36:44.464Z,3.60
2024-04-06T02:40:51.490Z,5.50
2024-04-06T02:44:58.478Z,7.40
2024-04-06T02:48:56.114Z,4.20
2024-04-06T02:56:28.170Z,4.00
2024-04-06T03:00:45.437Z,13.50
2024-04-06T03:04:46.096Z,8.60
2024-04-06T03:08:38.415Z,3.50
2024-04-06T03:12:53.311Z,4.80
2024-04-06T03:23:52.084Z,7.30
2024-04-06T03:28:17.473Z,3.70
2024-04-06T03:32:18.062Z,4.70
2024-04-06T03:36:39.255Z,5.20
2024-04-06T03:44:06.744Z,3.20
2024-04-06T03:48:28.024Z,3.90
2024-04-06T03:56:54.123Z,2.50
2024-04-06T04:00:55.347Z,7.60
2024-04-06T04:05:17.202Z,6.80
2024-04-06T04:09:45.319Z,3.80
2024-04-06T04:14:13.812Z,4.00
2024-04-06T04:33:50.897Z,4.90
2024-04-06T04:38:19.720Z,3.80
2024-04-06T04:42:49.163Z,6.00
2024-04-06T04:57:32.105Z,8.40
2024-04-06T05:02:00.737Z,4.00
2024-04-06T05:06:29.091Z,7.00
2024-04-06T05:14:38.033Z,5.70
2024-04-06T05:19:15.287Z,11.30
2024-04-06T05:23:48.112Z,11.90
2024-04-06T05:28:16.273Z,4.60
2024-04-06T05:32:45.201Z,6.00
2024-04-06T05:37:15.009Z,8.40
2024-04-06T05:53:20.406Z,6.20
2024-04-06T06:01:24.202Z,9.30
2024-04-06T06:05:52.913Z,8.10
2024-04-06T06:17:09.166Z,5.10
2024-04-06T06:21:27.105Z,5.10
2024-04-06T06:25:55.173Z,5.40
2024-04-06T06:30:23.843Z,7.50
2024-04-06T06:34:52.210Z,7.60
2024-04-06T06:44:04.512Z,4.90
2024-04-06T06:48:36.530Z,3.60
2024-04-06T07:13:12.124Z,8.10
2024-04-06T07:17:40.766Z,6.40
2024-04-06T07:22:09.963Z,7.60
2024-04-06T07:37:53.497Z,6.40
2024-04-06T07:42:21.337Z,6.20
2024-04-06T07:46:48.635Z,10.70
2024-04-06T07:51:17.588Z,11.50
2024-04-06T08:14:28.995Z,10.80
2024-04-06T08:18:56.947Z,8.00
2024-04-06T08:23:24.494Z,12.40
2024-04-06T08:28:02.269Z,9.90
2024-04-06T08:40:18.969Z,11.70
2024-04-06T08:49:10.029Z,10.10
2024-04-06T08:53:21.302Z,8.40
2024-04-06T08:57:49.399Z,12.90
2024-04-06T09:06:05.826Z,10.50
2024-04-06T09:10:34.550Z,6.60
2024-04-06T09:15:03.401Z,9.50
2024-04-06T09:30:22.051Z,8.60
2024-04-06T09:34:50.974Z,10.40
2024-04-06T09:39:19.672Z,8.60
2024-04-06T09:43:58.127Z,10.50
2024-04-06T09:48:06.907Z,9.70
2024-04-06T09:52:15.655Z,14.20
2024-04-06T09:56:00.997Z,18.80
2024-04-06T09:59:15.962Z,12.30
2024-04-06T10:16:14.458Z,16.70
2024-04-06T10:19:28.736Z,16.20
2024-04-06T10:22:26.140Z,19.80
2024-04-06T10:25:24.634Z,17.30
2024-04-06T10:32:39.644Z,14.40
2024-04-06T10:36:31.979Z,19.40
2024-04-06T10:40:57.355Z,17.50
2024-04-06T10:44:32.174Z,17.20
2024-04-06T11:11:09.170Z,19.50
2024-04-06T11:22:31.578Z,23.10
2024-04-06T11:26:26.172Z,18.70
2024-04-06T11:48:34.228Z,22.10
2024-04-06T11:52:42.676Z,21.50
2024-04-06T12:00:21.830Z,21.20
2024-04-06T12:04:47.664Z,20.00
2024-04-06T12:09:00.807Z,18.20
2024-04-06T12:13:29.844Z,19.80
2024-04-06T12:17:59.547Z,18.30
2024-04-06T12:41:31.866Z,17.60
2024-04-06T12:57:35.787Z,20.50
2024-04-06T13:06:14.841Z,19.70
2024-04-06T13:14:47.952Z,17.50
2024-04-06T13:29:43.862Z,20.70
2024-04-06T13:34:12.287Z,21.60
2024-04-06T13:38:38.109Z,22.40
2024-04-06T13:42:46.702Z,21.30
2024-04-06T13:47:15.650Z,20.10
2024-04-06T13:51:50.159Z,17.70
2024-04-06T13:56:21.066Z,20.30
2024-04-06T14:00:49.550Z,20.20
2024-04-06T14:05:18.678Z,19.60
2024-04-06T14:16:37.537Z,17.40
2024-04-06T14:32:40.091Z,17.90
2024-04-06T14:54:25.628Z,19.30
2024-04-06T14:58:05.558Z,18.20
2024-04-06T15:05:46.615Z,19.70
2024-04-06T15:13:39.249Z,19.40
2024-04-06T15:38:21.259Z,16.20
2024-04-06T15:42:30.091Z,18.00
2024-04-06T16:05:56.402Z,20.00
2024-04-06T16:22:23.244Z,21.60
2024-04-06T16:26:42.376Z,21.20
2024-04-06T16:30:55.122Z,16.10
2024-04-06T16:38:36.248Z,18.10
2024-04-06T16:46:23.560Z,24.70
2024-04-06T16:54:09.523Z,19.10
2024-04-06T16:57:59.429Z,16.80
2024-04-06T17:02:12.407Z,20.40
2024-04-06T17:09:04.402Z,18.30
2024-04-06T17:13:36.386Z,22.20
2024-04-06T17:18:05.092Z,21.90
2024-04-06T17:22:35.026Z,37.00
2024-04-06T17:30:01.389Z,122.10
2024-04-06T17:36:49.042Z,27.80
2024-04-06T17:40:58.385Z,25.80
2024-04-06T17:44:58.022Z,27.80
2024-04-06T17:49:19.369Z,54.60
2024-04-06T17:53:32.031Z,27.20
2024-04-06T17:57:45.579Z,22.00
2024-04-06T18:04:53.365Z,33.90
2024-04-06T18:08:53.322Z,36.00
2024-04-06T18:13:22.253Z,29.00
2024-04-06T18:17:17.991Z,34.00
2024-04-06T18:21:29.351Z,31.70
2024-04-06T18:25:53.618Z,35.00
2024-04-06T18:29:52.093Z,31.00
2024-04-06T18:37:17.052Z,32.30
2024-04-06T18:41:34.489Z,41.30
2024-04-06T18:45:46.405Z,31.60
2024-04-06T18:54:20.638Z,26.50
2024-04-06T18:58:40.898Z,26.60
2024-04-06T19:02:53.497Z,21.10
2024-04-06T19:14:03.270Z,17.80
2024-04-06T19:18:09.209Z,16.90
2024-04-06T19:21:57.934Z,17.30
2024-04-06T19:29:37.016Z,16.40
2024-04-06T19:33:21.052Z,26.30
2024-04-06T19:37:46.089Z,18.50
2024-04-06T19:42:14.730Z,17.30
2024-04-06T19:49:58.412Z,11.40
2024-04-06T19:58:10.254Z,14.00
2024-04-06T20:01:47.355Z,14.90
2024-04-06T20:06:07.734Z,11.20
2024-04-06T20:13:17.249Z,12.30
2024-04-06T20:17:45.864Z,13.40
2024-04-06T20:21:08.916Z,18.00
2024-04-06T20:25:13.431Z,12.50
2024-04-06T20:29:22.784Z,13.00
2024-04-06T20:37:07.961Z,10.90
2024-04-06T20:41:29.653Z,11.90
2024-04-06T20:48:37.702Z,11.90
2024-04-06T20:53:09.784Z,15.80
2024-04-06T20:57:10.604Z,18.30
2024-04-06T21:04:57.632Z,18.60
2024-04-06T21:09:07.954Z,20.30
2024-04-06T21:12:49.604Z,25.70
2024-04-06T21:16:48.631Z,25.40
2024-04-06T21:20:59.556Z,26.60
2024-04-06T21:28:53.571Z,25.50
2024-04-06T21:32:43.834Z,23.70
2024-04-06T21:37:02.237Z,25.70
2024-04-06T21:41:05.520Z,28.90
2024-04-06T21:45:02.882Z,27.60
2024-04-06T21:49:03.823Z,26.70
2024-04-06T21:52:45.513Z,33.70
2024-04-06T21:56:36.626Z,21.90
2024-04-06T22:00:39.983Z,21.50
2024-04-06T22:04:52.802Z,28.90
2024-04-06T22:09:01.879Z,22.80
2024-04-06T22:12:42.804Z,22.50
2024-04-06T22:16:24.500Z,21.40
2024-04-06T22:20:19.632Z,19.20
2024-04-06T22:24:32.865Z,14.40
2024-04-06T22:28:14.469Z,12.40
2024-04-06T22:32:35.922Z,12.20
2024-04-06T22:36:54.433Z,13.30
2024-04-06T22:45:27.477Z,8.20
2024-04-06T22:49:27.510Z,9.90
2024-04-06T22:53:35.670Z,10.40
2024-04-06T22:57:48.574Z,10.40
2024-04-06T23:01:31.407Z,13.20
2024-04-06T23:05:37.316Z,11.70
2024-04-06T23:09:34.417Z,14.40
2024-04-06T23:13:01.500Z,9.30
2024-04-06T23:17:16.444Z,6.90
2024-04-06T23:20:39.375Z,8.70
2024-04-06T23:25:02.377Z,11.60
2024-04-06T23:29:33.360Z,10.40
2024-04-06T23:33:39.482Z,6.80
2024-04-06T23:37:07.410Z,7.00
2024-04-06T23:40:31.765Z,7.90
2024-04-06T23:44:43.564Z,9.50
2024-04-06T23:48:33.727Z,12.90
2024-04-06T23:52:21.669Z,11.60
2024-04-06T23:56:31.383Z,10.50
